createdAt,value
2023-06-11T00:00:40.814Z,100.00
2023-06-11T00:03:10.072Z,100.00
2023-06-11T00:05:39.228Z,100.00
2023-06-11T00:08:10.984Z,100.00
2023-06-11T00:10:40.093Z,100.00
2023-06-11T00:13:09.350Z,100.00
2023-06-11T00:15:39.903Z,100.00
2023-06-11T00:18:09.112Z,100.00
2023-06-11T00:20:41.745Z,100.00
2023-06-11T00:23:11.005Z,100.00
2023-06-11T00:25:40.216Z,100.00
2023-06-11T00:28:09.408Z,100.00
2023-06-11T00:30:40.122Z,100.00
2023-06-11T00:33:09.329Z,100.00
2023-06-11T00:35:38.635Z,100.00
2023-06-11T00:38:08.344Z,100.00
2023-06-11T00:40:37.823Z,100.00
2023-06-11T00:43:08.592Z,100.00
2023-06-11T00:45:39.327Z,100.00
2023-06-11T00:48:08.517Z,100.00
2023-06-11T00:50:45.988Z,100.00
2023-06-11T00:53:15.297Z,100.00
2023-06-11T00:55:44.421Z,100.00
2023-06-11T00:58:15.678Z,100.00
2023-06-11T01:00:50.774Z,100.00
2023-06-11T01:03:28.428Z,100.00
2023-06-11T01:06:03.734Z,100.00
2023-06-11T01:08:39.890Z,100.00
2023-06-11T01:11:14.996Z,100.00
2023-06-11T01:13:46.799Z,100.00
2023-06-11T01:16:22.283Z,100.00
2023-06-11T01:18:59.337Z,100.00
2023-06-11T01:21:34.341Z,100.00
2023-06-11T01:24:13.639Z,100.00
2023-06-11T01:26:52.035Z,100.00
2023-06-11T01:29:24.800Z,100.00
2023-06-11T01:31:56.533Z,100.00
2023-06-11T01:34:26.768Z,100.00
2023-06-11T01:36:56.468Z,100.00
2023-06-11T01:39:26.248Z,100.00
2023-06-11T01:42:20.355Z,100.00
2023-06-11T01:44:51.003Z,100.00
2023-06-11T01:47:22.316Z,100.00
2023-06-11T01:49:52.272Z,100.00
2023-06-11T01:52:21.505Z,100.00
2023-06-11T01:54:50.704Z,100.00
2023-06-11T01:57:19.890Z,100.00
2023-06-11T01:59:50.561Z,100.00
2023-06-11T02:02:19.851Z,100.00
2023-06-11T02:04:49.015Z,100.00
2023-06-11T02:07:18.363Z,100.00
2023-06-11T02:09:47.634Z,100.00
2023-06-11T02:12:16.849Z,100.00
2023-06-11T02:14:46.094Z,100.00
2023-06-11T02:17:16.698Z,100.00
2023-06-11T02:19:45.964Z,100.00
2023-06-11T02:22:15.340Z,100.00
2023-06-11T02:24:44.600Z,100.00
2023-06-11T02:27:13.779Z,100.00
2023-06-11T02:29:43.239Z,100.00
2023-06-11T02:32:14.962Z,100.00
2023-06-11T02:34:44.279Z,100.00
2023-06-11T02:37:13.454Z,100.00
2023-06-11T02:39:42.705Z,100.00
2023-06-11T02:42:12.133Z,100.00
2023-06-11T02:44:41.611Z,100.00
2023-06-11T02:47:10.866Z,100.00
2023-06-11T02:49:41.345Z,100.00
2023-06-11T02:52:10.588Z,100.00
2023-06-11T02:54:39.750Z,100.00
2023-06-11T02:57:08.962Z,100.00
2023-06-11T02:59:38.102Z,100.00
2023-06-11T03:02:07.568Z,100.00
2023-06-11T03:04:37.300Z,100.00
2023-06-11T03:07:08.092Z,100.00
2023-06-11T03:09:37.645Z,100.00
2023-06-11T03:12:08.132Z,100.00
2023-06-11T03:14:37.369Z,100.00
2023-06-11T03:17:06.862Z,100.00
2023-06-11T03:19:36.290Z,100.00
2023-06-11T03:22:08.085Z,100.00
2023-06-11T03:24:37.380Z,100.00
2023-06-11T03:27:16.353Z,100.00
2023-06-11T03:29:45.671Z,100.00
2023-06-11T03:32:14.931Z,100.00
2023-06-11T03:34:47.635Z,100.00
2023-06-11T03:37:18.202Z,100.00
2023-06-11T03:39:47.448Z,100.00
2023-06-11T03:42:16.744Z,100.00
2023-06-11T03:44:46.242Z,100.00
2023-06-11T03:47:17.528Z,100.00
2023-06-11T03:49:47.260Z,100.00
2023-06-11T03:52:18.088Z,100.00
2023-06-11T03:54:47.485Z,100.00
2023-06-11T03:57:18.940Z,100.00
2023-06-11T03:59:48.656Z,100.00
2023-06-11T04:02:18.474Z,100.00
2023-06-11T04:04:48.216Z,100.00
2023-06-11T04:07:18.942Z,100.00
2023-06-11T04:09:48.101Z,100.00
2023-06-11T04:12:17.703Z,100.00
2023-06-11T04:14:46.854Z,100.00
2023-06-11T04:17:16.240Z,100.00
2023-06-11T04:19:45.663Z,100.00
2023-06-11T04:22:15.094Z,100.00
2023-06-11T04:24:46.247Z,100.00
2023-06-11T04:27:15.635Z,100.00
2023-06-11T04:29:45.780Z,100.00
2023-06-11T04:32:18.039Z,100.00
2023-06-11T04:34:49.708Z,100.00
2023-06-11T04:37:20.853Z,100.00
2023-06-11T04:39:52.649Z,100.00
2023-06-11T04:42:25.698Z,100.00
2023-06-11T04:44:57.235Z,100.00
2023-06-11T04:47:30.630Z,100.00
2023-06-11T04:50:04.208Z,100.00
2023-06-11T04:52:36.322Z,100.00
2023-06-11T04:55:10.654Z,100.00
2023-06-11T04:57:40.901Z,100.00
2023-06-11T05:00:12.898Z,100.00
2023-06-11T05:02:45.765Z,100.00
2023-06-11T05:05:16.338Z,100.00
2023-06-11T05:07:45.546Z,100.00
2023-06-11T05:10:18.825Z,100.00
2023-06-11T05:12:48.071Z,100.00
2023-06-11T05:15:17.392Z,100.00
2023-06-11T05:17:47.104Z,100.00
2023-06-11T05:20:16.871Z,100.00
2023-06-11T05:22:47.478Z,100.00
2023-06-11T05:25:20.933Z,100.00
2023-06-11T05:27:51.760Z,100.00
2023-06-11T05:30:25.392Z,100.00
2023-06-11T05:32:59.627Z,100.00
2023-06-11T05:35:28.840Z,100.00
2023-06-11T05:37:58.937Z,100.00
2023-06-11T05:40:29.889Z,100.00
2023-06-11T05:42:59.122Z,100.00
2023-06-11T05:45:28.577Z,100.00
2023-06-11T05:47:58.314Z,100.00
2023-06-11T05:50:27.875Z,100.00
2023-06-11T05:52:57.361Z,100.00
2023-06-11T05:55:26.948Z,100.00
2023-06-11T05:57:57.487Z,100.00
2023-06-11T06:00:26.852Z,100.00
2023-06-11T06:02:57.119Z,100.00
2023-06-11T06:05:31.057Z,100.00
2023-06-11T06:08:00.391Z,100.00
2023-06-11T06:10:29.984Z,100.00
2023-06-11T06:13:00.661Z,100.00
2023-06-11T06:15:29.928Z,100.00
2023-06-11T06:17:59.405Z,100.00
2023-06-11T06:20:37.716Z,100.00
2023-06-11T06:23:06.932Z,100.00
2023-06-11T06:25:39.446Z,100.00
2023-06-11T06:28:13.089Z,100.00
2023-06-11T06:30:43.507Z,100.00
2023-06-11T06:33:14.083Z,100.00
2023-06-11T06:35:43.323Z,100.00
2023-06-11T06:38:14.024Z,100.00
2023-06-11T06:40:45.328Z,100.00
2023-06-11T06:43:15.872Z,100.00
2023-06-11T06:45:45.933Z,100.00
2023-06-11T06:48:25.297Z,100.00
2023-06-11T06:50:56.403Z,100.00
2023-06-11T06:53:26.300Z,100.00
2023-06-11T06:55:55.673Z,100.00
2023-06-11T06:58:26.347Z,100.00
2023-06-11T07:00:55.844Z,100.00
2023-06-11T07:03:25.195Z,100.00
2023-06-11T07:05:54.818Z,100.00
2023-06-11T07:08:24.531Z,100.00
2023-06-11T07:10:56.395Z,100.00
2023-06-11T07:13:41.193Z,100.00
2023-06-11T07:16:12.192Z,100.00
2023-06-11T07:18:45.485Z,100.00
2023-06-11T07:21:18.029Z,100.00
2023-06-11T07:23:47.271Z,100.00
2023-06-11T07:26:19.370Z,100.00
2023-06-11T07:28:50.929Z,100.00
2023-06-11T07:31:22.473Z,100.00
2023-06-11T07:33:54.895Z,100.00
2023-06-11T07:36:25.299Z,100.00
2023-06-11T07:38:55.740Z,100.00
2023-06-11T07:41:26.152Z,100.00
2023-06-11T07:43:57.028Z,100.00
2023-06-11T07:46:26.545Z,100.00
2023-06-11T07:48:59.281Z,100.00
2023-06-11T07:51:28.538Z,100.00
2023-06-11T07:54:05.855Z,100.00
2023-06-11T07:56:36.434Z,100.00
2023-06-11T07:59:07.958Z,100.00
2023-06-11T08:01:37.386Z,100.00
2023-06-11T08:04:07.385Z,100.00
2023-06-11T08:06:38.923Z,100.00
2023-06-11T08:09:09.401Z,100.00
2023-06-11T08:11:38.949Z,100.00
2023-06-11T08:14:09.421Z,100.00
2023-06-11T08:16:38.692Z,100.00
2023-06-11T08:19:08.223Z,100.00
2023-06-11T08:21:38.098Z,100.00
2023-06-11T08:24:08.167Z,100.00
2023-06-11T08:26:37.680Z,100.00
2023-06-11T08:29:08.538Z,100.00
2023-06-11T08:31:38.348Z,100.00
2023-06-11T08:34:07.704Z,100.00
2023-06-11T08:36:36.898Z,100.00
2023-06-11T08:39:06.175Z,100.00
2023-06-11T08:41:37.189Z,100.00
2023-06-11T08:44:07.903Z,100.00
2023-06-11T08:46:37.839Z,100.00
2023-06-11T08:49:09.211Z,100.00
2023-06-11T08:51:39.910Z,100.00
2023-06-11T08:54:10.919Z,100.00
2023-06-11T08:56:41.234Z,100.00
2023-06-11T08:59:11.796Z,100.00
2023-06-11T09:01:41.646Z,100.00
2023-06-11T09:04:11.098Z,100.00
2023-06-11T09:06:49.881Z,100.00
2023-06-11T09:09:19.637Z,100.00
2023-06-11T09:11:49.108Z,100.00
2023-06-11T09:14:19.709Z,100.00
2023-06-11T09:16:50.617Z,100.00
2023-06-11T09:19:21.467Z,100.00
2023-06-11T09:21:54.465Z,100.00
2023-06-11T09:24:25.081Z,100.00
2023-06-11T09:26:55.871Z,100.00
2023-06-11T09:29:28.665Z,100.00
2023-06-11T09:32:10.076Z,100.00
2023-06-11T09:34:43.159Z,100.00
2023-06-11T09:37:13.270Z,100.00
2023-06-11T09:39:43.766Z,100.00
2023-06-11T09:42:23.558Z,100.00
2023-06-11T09:44:58.656Z,100.00
2023-06-11T09:47:28.994Z,100.00
2023-06-11T09:49:59.211Z,100.00
2023-06-11T09:52:29.154Z,97.52
2023-06-11T09:54:58.750Z,97.80
2023-06-11T09:57:30.146Z,94.84
2023-06-11T10:00:02.063Z,99.45
2023-06-11T10:02:34.142Z,89.96
2023-06-11T10:05:03.848Z,92.68
2023-06-11T10:07:34.647Z,85.20
2023-06-11T10:10:04.196Z,84.62
2023-06-11T10:12:35.062Z,78.22
2023-06-11T10:15:07.009Z,76.37
2023-06-11T10:17:37.969Z,76.72
2023-06-11T10:20:18.083Z,68.97
2023-06-11T10:22:47.361Z,66.94
2023-06-11T10:25:16.707Z,67.76
2023-06-11T10:27:46.460Z,66.62
2023-06-11T10:30:26.432Z,75.92
2023-06-11T10:32:57.773Z,66.03
2023-06-11T10:35:30.011Z,73.44
2023-06-11T10:38:06.987Z,60.36
2023-06-11T10:40:37.576Z,60.99
2023-06-11T10:43:17.587Z,61.05
2023-06-11T10:45:50.110Z,63.21
2023-06-11T10:48:30.310Z,64.22
2023-06-11T10:51:03.402Z,59.80
2023-06-11T10:53:41.010Z,61.13
2023-06-11T10:56:11.047Z,59.79
2023-06-11T10:58:41.709Z,54.97
2023-06-11T11:01:12.767Z,67.97
2023-06-11T11:03:44.199Z,65.17
2023-06-11T11:06:14.568Z,63.87
2023-06-11T11:08:43.745Z,58.32
2023-06-11T11:11:12.970Z,60.46
2023-06-11T11:13:42.584Z,56.65
2023-06-11T11:16:13.290Z,56.15
2023-06-11T11:18:42.599Z,60.51
2023-06-11T11:21:11.766Z,55.27
2023-06-11T11:23:41.144Z,55.61
2023-06-11T11:26:11.506Z,56.17
2023-06-11T11:28:40.748Z,53.37
2023-06-11T11:31:11.887Z,62.33
2023-06-11T11:33:42.520Z,53.46
2023-06-11T11:36:14.311Z,58.28
2023-06-11T11:38:43.545Z,48.81
2023-06-11T11:41:12.746Z,53.65
2023-06-11T11:43:44.051Z,47.74
2023-06-11T11:46:18.218Z,46.28
2023-06-11T11:48:49.148Z,42.30
2023-06-11T11:51:18.807Z,40.43
2023-06-11T11:53:49.007Z,44.45
2023-06-11T11:56:18.225Z,40.40
2023-06-11T11:58:48.492Z,53.35
2023-06-11T12:01:23.261Z,46.22
2023-06-11T12:04:01.772Z,46.51
2023-06-11T12:06:36.602Z,44.11
2023-06-11T12:09:09.581Z,44.41
2023-06-11T12:11:45.749Z,38.75
2023-06-11T12:14:28.500Z,36.79
2023-06-11T12:17:01.926Z,40.26
2023-06-11T12:19:36.324Z,40.92
2023-06-11T12:22:12.482Z,42.50
2023-06-11T12:24:42.272Z,37.59
2023-06-11T12:27:14.826Z,36.83
2023-06-11T12:29:55.470Z,35.78
2023-06-11T12:32:27.674Z,33.41
2023-06-11T12:35:02.408Z,31.10
2023-06-11T12:37:38.189Z,30.44
2023-06-11T12:40:13.187Z,31.98
2023-06-11T12:42:50.880Z,34.22
2023-06-11T12:45:24.103Z,35.09
2023-06-11T12:47:53.930Z,37.33
2023-06-11T12:50:27.233Z,38.15
2023-06-11T12:52:57.685Z,37.08
2023-06-11T12:55:27.395Z,40.19
2023-06-11T12:57:56.573Z,52.56
2023-06-11T13:00:27.901Z,53.06
2023-06-11T13:02:58.624Z,52.01
2023-06-11T13:05:29.563Z,49.59
2023-06-11T13:07:59.450Z,60.32
2023-06-11T13:10:39.623Z,61.99
2023-06-11T13:13:14.503Z,60.09
2023-06-11T13:15:48.620Z,60.87
2023-06-11T13:18:22.330Z,61.42
2023-06-11T13:20:57.417Z,56.60
2023-06-11T13:23:33.427Z,54.77
2023-06-11T13:26:07.959Z,53.83
2023-06-11T13:28:44.386Z,62.24
2023-06-11T13:31:18.229Z,58.38
2023-06-11T13:33:52.259Z,57.85
2023-06-11T13:36:27.136Z,57.89
2023-06-11T13:39:05.390Z,59.56
2023-06-11T13:41:35.946Z,56.37
2023-06-11T13:44:09.632Z,56.68
2023-06-11T13:46:39.403Z,60.27
2023-06-11T13:49:10.430Z,62.52
2023-06-11T13:51:43.796Z,57.89
2023-06-11T13:54:18.059Z,61.59
2023-06-11T13:56:52.489Z,57.72
2023-06-11T13:59:23.309Z,66.24
2023-06-11T14:01:55.950Z,60.66
2023-06-11T14:04:25.255Z,60.81
2023-06-11T14:06:56.360Z,61.82
2023-06-11T14:09:25.662Z,60.04
2023-06-11T14:11:54.936Z,63.28
2023-06-11T14:14:24.756Z,59.98
2023-06-11T14:16:54.022Z,57.60
2023-06-11T14:19:23.467Z,58.42
2023-06-11T14:21:53.436Z,59.84
2023-06-11T14:24:24.861Z,61.92
2023-06-11T14:26:55.763Z,60.66
2023-06-11T14:29:25.052Z,59.63
2023-06-11T14:32:01.463Z,62.48
2023-06-11T14:34:31.095Z,62.74
2023-06-11T14:37:00.428Z,64.07
2023-06-11T14:39:31.887Z,60.13
2023-06-11T14:42:01.080Z,62.48
2023-06-11T14:44:30.611Z,67.62
2023-06-11T14:46:59.808Z,65.36
2023-06-11T14:49:29.076Z,66.26
2023-06-11T14:52:00.758Z,65.20
2023-06-11T14:54:31.602Z,66.21
2023-06-11T14:57:00.800Z,66.36
2023-06-11T14:59:29.977Z,64.69
2023-06-11T15:01:59.335Z,72.57
2023-06-11T15:04:28.849Z,67.93
2023-06-11T15:06:58.972Z,68.86
2023-06-11T15:09:31.814Z,67.37
2023-06-11T15:12:08.792Z,68.57
2023-06-11T15:14:44.310Z,69.74
2023-06-11T15:17:24.198Z,70.32
2023-06-11T15:20:02.728Z,68.45
2023-06-11T15:22:41.298Z,69.87
2023-06-11T15:25:15.987Z,75.16
2023-06-11T15:27:45.676Z,75.23
2023-06-11T15:30:15.721Z,76.51
2023-06-11T15:32:49.932Z,73.93
2023-06-11T15:35:23.999Z,72.40
2023-06-11T15:37:56.761Z,71.57
2023-06-11T15:40:32.031Z,66.55
2023-06-11T15:43:19.841Z,67.73
2023-06-11T15:45:53.113Z,72.09
2023-06-11T15:48:26.351Z,73.53
2023-06-11T15:51:00.153Z,71.10
2023-06-11T15:53:33.739Z,75.17
2023-06-11T15:56:10.454Z,77.57
2023-06-11T15:58:43.238Z,79.07
2023-06-11T16:01:17.035Z,77.49
2023-06-11T16:03:51.752Z,77.65
2023-06-11T16:06:25.671Z,78.76
2023-06-11T16:09:01.277Z,78.86
2023-06-11T16:11:37.251Z,81.20
2023-06-11T16:14:10.270Z,83.38
2023-06-11T16:16:40.617Z,82.70
2023-06-11T16:19:23.526Z,81.88
2023-06-11T16:21:57.600Z,81.14
2023-06-11T16:24:30.262Z,80.80
2023-06-11T16:27:01.298Z,82.09
2023-06-11T16:29:31.904Z,84.35
2023-06-11T16:32:04.796Z,83.94
2023-06-11T16:34:36.311Z,85.35
2023-06-11T16:37:06.437Z,86.91
2023-06-11T16:39:35.922Z,89.83
2023-06-11T16:42:08.309Z,89.96
2023-06-11T16:44:38.219Z,91.02
2023-06-11T16:47:08.084Z,92.20
2023-06-11T16:49:37.658Z,93.32
2023-06-11T16:52:07.798Z,92.68
2023-06-11T16:54:38.510Z,94.83
2023-06-11T16:57:11.167Z,94.71
2023-06-11T16:59:45.799Z,96.34
2023-06-11T17:02:16.040Z,94.17
2023-06-11T17:04:45.571Z,95.74
2023-06-11T17:07:19.992Z,95.82
2023-06-11T17:09:51.896Z,94.64
2023-06-11T17:12:22.524Z,97.02
2023-06-11T17:14:54.425Z,99.27
2023-06-11T17:17:24.297Z,99.42
2023-06-11T17:19:53.535Z,100.00
2023-06-11T17:22:24.189Z,100.00
2023-06-11T17:24:55.560Z,100.00
2023-06-11T17:27:26.348Z,100.00
2023-06-11T17:29:55.705Z,100.00
2023-06-11T17:32:25.404Z,100.00
2023-06-11T17:34:57.150Z,100.00
2023-06-11T17:37:26.746Z,100.00
2023-06-11T17:39:56.237Z,100.00
2023-06-11T17:42:27.294Z,100.00
2023-06-11T17:44:56.675Z,100.00
2023-06-11T17:47:26.820Z,100.00
2023-06-11T17:49:56.027Z,100.00
2023-06-11T17:52:25.475Z,100.00
2023-06-11T17:54:55.041Z,100.00
2023-06-11T17:57:26.186Z,100.00
2023-06-11T17:59:57.284Z,100.00
2023-06-11T18:02:27.218Z,100.00
2023-06-11T18:04:56.724Z,100.00
2023-06-11T18:07:26.291Z,100.00
2023-06-11T18:09:55.501Z,100.00
2023-06-11T18:12:24.716Z,100.00
2023-06-11T18:14:54.039Z,100.00
2023-06-11T18:17:25.541Z,100.00
2023-06-11T18:19:55.620Z,100.00
2023-06-11T18:22:27.781Z,100.00
2023-06-11T18:24:57.553Z,100.00
2023-06-11T18:27:27.216Z,100.00
2023-06-11T18:29:57.092Z,100.00
2023-06-11T18:32:28.079Z,100.00
2023-06-11T18:35:00.172Z,100.00
2023-06-11T18:37:31.905Z,100.00
2023-06-11T18:40:01.527Z,100.00
2023-06-11T18:42:31.121Z,100.00
2023-06-11T18:45:02.813Z,100.00
2023-06-11T18:47:37.077Z,100.00
2023-06-11T18:50:08.308Z,100.00
2023-06-11T18:52:37.615Z,100.00
2023-06-11T18:55:08.389Z,100.00
2023-06-11T18:57:41.666Z,100.00
2023-06-11T19:00:12.916Z,100.00
2023-06-11T19:02:44.216Z,100.00
2023-06-11T19:05:14.104Z,100.00
2023-06-11T19:07:43.338Z,100.00
2023-06-11T19:10:13.393Z,100.00
2023-06-11T19:12:44.034Z,100.00
2023-06-11T19:15:16.699Z,100.00
2023-06-11T19:17:49.563Z,100.00
2023-06-11T19:20:19.839Z,100.00
2023-06-11T19:22:49.474Z,100.00
2023-06-11T19:25:19.196Z,100.00
2023-06-11T19:27:48.897Z,100.00
2023-06-11T19:30:18.309Z,100.00
2023-06-11T19:32:49.328Z,100.00
2023-06-11T19:35:19.150Z,100.00
2023-06-11T19:37:50.228Z,100.00
2023-06-11T19:40:19.774Z,100.00
2023-06-11T19:42:49.407Z,100.00
2023-06-11T19:45:19.567Z,100.00
2023-06-11T19:47:55.686Z,100.00
2023-06-11T19:50:27.189Z,100.00
2023-06-11T19:53:03.155Z,100.00
2023-06-11T19:55:33.276Z,100.00
2023-06-11T19:58:03.849Z,100.00
2023-06-11T20:00:34.134Z,100.00
2023-06-11T20:03:06.516Z,100.00
2023-06-11T20:05:40.373Z,100.00
2023-06-11T20:08:10.126Z,100.00
2023-06-11T20:10:40.509Z,100.00
2023-06-11T20:13:12.215Z,100.00
2023-06-11T20:15:41.487Z,100.00
2023-06-11T20:18:12.165Z,100.00
2023-06-11T20:20:41.754Z,100.00
2023-06-11T20:23:12.595Z,100.00
2023-06-11T20:25:42.073Z,100.00
2023-06-11T20:28:13.560Z,100.00
2023-06-11T20:30:44.247Z,100.00
2023-06-11T20:33:15.847Z,100.00
2023-06-11T20:35:46.602Z,100.00
2023-06-11T20:38:18.061Z,100.00
2023-06-11T20:40:47.758Z,100.00
2023-06-11T20:43:16.917Z,100.00
2023-06-11T20:45:54.539Z,100.00
2023-06-11T20:48:28.804Z,100.00
2023-06-11T20:50:58.261Z,100.00
2023-06-11T20:53:34.380Z,100.00
2023-06-11T20:56:04.286Z,100.00
2023-06-11T20:58:33.502Z,100.00
2023-06-11T21:01:03.354Z,100.00
2023-06-11T21:03:33.952Z,100.00
2023-06-11T21:06:03.593Z,100.00
2023-06-11T21:08:35.195Z,100.00
2023-06-11T21:11:04.845Z,100.00
2023-06-11T21:13:34.802Z,100.00
2023-06-11T21:16:04.482Z,100.00
2023-06-11T21:18:36.145Z,100.00
2023-06-11T21:21:07.228Z,100.00
2023-06-11T21:23:36.703Z,100.00
2023-06-11T21:26:06.377Z,100.00
2023-06-11T21:28:37.146Z,100.00
2023-06-11T21:31:06.374Z,100.00
2023-06-11T21:33:37.180Z,100.00
2023-06-11T21:36:06.986Z,100.00
2023-06-11T21:38:36.158Z,100.00
2023-06-11T21:41:05.269Z,100.00
2023-06-11T21:43:34.496Z,100.00
2023-06-11T21:46:03.677Z,100.00
2023-06-11T21:48:32.871Z,100.00
2023-06-11T21:51:03.371Z,100.00
2023-06-11T21:53:32.513Z,100.00
2023-06-11T21:56:01.806Z,100.00
2023-06-11T21:58:30.934Z,100.00
2023-06-11T22:01:00.218Z,100.00
2023-06-11T22:03:29.573Z,100.00
2023-06-11T22:05:59.700Z,100.00
2023-06-11T22:08:30.557Z,100.00
2023-06-11T22:10:59.675Z,100.00
2023-06-11T22:13:31.330Z,100.00
2023-06-11T22:16:00.486Z,100.00
2023-06-11T22:18:30.071Z,100.00
2023-06-11T22:20:59.975Z,100.00
2023-06-11T22:23:48.926Z,100.00
2023-06-11T22:26:19.378Z,100.00
2023-06-11T22:28:48.660Z,100.00
2023-06-11T22:31:17.917Z,100.00
2023-06-11T22:33:47.335Z,100.00
2023-06-11T22:36:16.897Z,100.00
2023-06-11T22:38:47.497Z,100.00
2023-06-11T22:41:16.631Z,100.00
2023-06-11T22:43:45.882Z,100.00
2023-06-11T22:46:15.035Z,100.00
2023-06-11T22:48:44.132Z,100.00
2023-06-11T22:51:14.152Z,100.00
2023-06-11T22:53:43.354Z,100.00
2023-06-11T22:56:14.043Z,100.00
2023-06-11T22:58:43.193Z,100.00
2023-06-11T23:01:12.365Z,100.00
2023-06-11T23:03:41.631Z,100.00
2023-06-11T23:06:11.397Z,100.00
2023-06-11T23:08:41.666Z,100.00
2023-06-11T23:11:11.017Z,100.00
2023-06-11T23:13:41.508Z,100.00
2023-06-11T23:16:11.532Z,100.00
2023-06-11T23:18:41.299Z,100.00
2023-06-11T23:21:11.613Z,100.00
2023-06-11T23:23:43.042Z,100.00
2023-06-11T23:26:13.886Z,100.00
2023-06-11T23:28:44.375Z,100.00
2023-06-11T23:31:13.489Z,100.00
2023-06-11T23:33:42.853Z,100.00
2023-06-11T23:36:13.574Z,100.00
2023-06-11T23:38:42.912Z,100.00
2023-06-11T23:41:12.484Z,100.00
2023-06-11T23:43:43.042Z,100.00
2023-06-11T23:46:13.261Z,100.00
2023-06-11T23:48:42.810Z,100.00
2023-06-11T23:51:12.470Z,100.00
2023-06-11T23:53:41.632Z,100.00
2023-06-11T23:56:10.869Z,100.00
2023-06-11T23:58:40.054Z,100.00
